Time;durP1;ratioP1;P1;durP2;ratioP2;P2;SDS_P1;SDS_P2;PMS_P1;PMS_P2;Temp;Humidity;BMP_temperature;BMP_pressure;BME280_temperature;BME280_humidity;BME280_pressure;Samples;Min_cycle;Max_cycle;Signal;HPM_P1;HPM_P2
2022/04/05 00:02:08;;;;;;;7.78;5.88;;;;;;;4.89;100.00;62498.66;5048046;28;20222;-78
2022/04/05 00:04:35;;;;;;;8.30;5.25;;;;;;;4.79;100.00;62490.91;5036129;28;20207;-80
2022/04/05 00:07:02;;;;;;;12.20;6.40;;;;;;;4.74;100.00;62483.75;5033265;28;20222;-79
2022/04/05 00:09:29;;;;;;;8.15;6.32;;;;;;;4.64;100.00;62476.50;5034049;28;20217;-79
2022/04/05 00:11:56;;;;;;;8.95;6.13;;;;;;;4.58;100.00;62469.81;5051259;28;20289;-79
2022/04/05 00:14:25;;;;;;;12.35;6.10;;;;;;;4.58;100.00;62472.84;5056480;28;20225;-79
2022/04/05 00:16:52;;;;;;;7.25;5.90;;;;;;;4.58;100.00;62467.28;5055177;28;20218;-80
2022/04/05 00:19:21;;;;;;;12.60;6.32;;;;;;;4.59;100.00;62473.88;5047507;28;20226;-81
2022/04/05 00:21:48;;;;;;;7.70;6.10;;;;;;;4.44;100.00;62455.91;5041113;28;20210;-80
2022/04/05 00:24:15;;;;;;;8.25;5.82;;;;;;;4.45;100.00;62456.44;5056286;28;20198;-81
2022/04/05 00:26:42;;;;;;;8.32;5.53;;;;;;;4.40;100.00;62449.25;5055047;28;20221;-82
2022/04/05 00:29:09;;;;;;;8.75;6.10;;;;;;;4.23;100.00;62429.25;5051054;28;20228;-80
2022/04/05 00:31:37;;;;;;;9.38;6.30;;;;;;;4.20;100.00;62428.16;5050375;28;20248;-80
2022/04/05 00:34:05;;;;;;;7.95;5.93;;;;;;;4.18;100.00;62426.63;5054720;28;20202;-81
2022/04/05 00:36:32;;;;;;;6.88;5.55;;;;;;;4.27;100.00;62440.41;5054906;28;20207;-80
2022/04/05 00:38:59;;;;;;;10.98;6.38;;;;;;;4.29;100.00;62439.97;5056207;28;20233;-79
2022/04/05 00:41:26;;;;;;;7.50;5.97;;;;;;;4.36;100.00;62447.69;5056722;28;20265;-80
2022/04/05 00:43:53;;;;;;;8.65;5.75;;;;;;;4.28;100.00;62436.91;5055728;28;20224;-80
2022/04/05 00:46:19;;;;;;;7.55;5.57;;;;;;;4.26;100.00;62434.34;5057982;28;20194;-80
2022/04/05 00:48:51;;;;;;;7.65;5.95;;;;;;;4.15;100.00;62425.56;5058230;28;20278;-80
2022/04/05 00:51:20;;;;;;;6.03;5.20;;;;;;;4.14;100.00;62420.00;5056935;28;20209;-80
2022/04/05 00:53:48;;;;;;;11.80;6.80;;;;;;;3.81;100.00;62388.59;5057602;28;20234;-80
2022/04/05 00:56:16;;;;;;;10.68;7.13;;;;;;;3.91;100.00;62398.34;5042255;28;20199;-80
2022/04/05 00:58:47;;;;;;;10.93;6.75;;;;;;;3.91;100.00;62401.38;5039637;28;20229;-80
2022/04/05 01:01:16;;;;;;;10.65;6.78;;;;;;;3.90;100.00;62397.81;5050689;28;20190;-80
2022/04/05 01:03:48;;;;;;;11.82;6.43;;;;;;;3.95;100.00;62402.97;5056698;28;20218;-79
2022/04/05 01:06:18;;;;;;;7.82;5.72;;;;;;;4.01;100.00;62408.63;5055038;28;20479;-80
2022/04/05 01:08:46;;;;;;;8.15;6.50;;;;;;;3.99;100.00;62409.09;5055714;28;20277;-81
2022/04/05 01:11:13;;;;;;;6.22;5.30;;;;;;;4.04;100.00;62409.22;5055147;28;20198;-79
2022/04/05 01:13:40;;;;;;;6.35;5.07;;;;;;;4.04;100.00;62416.75;5046421;28;20241;-81
2022/04/05 01:16:07;;;;;;;7.45;4.70;;;;;;;4.11;100.00;62421.44;5044683;28;20205;-79
2022/04/05 01:18:34;;;;;;;5.85;4.68;;;;;;;4.01;100.00;62411.16;5056715;28;20257;-80
2022/04/05 01:21:01;;;;;;;5.10;4.60;;;;;;;3.97;100.00;62407.53;5059283;28;20198;-80
2022/04/05 01:23:29;;;;;;;8.52;4.65;;;;;;;4.04;100.00;62414.25;5041628;28;20234;-79
2022/04/05 01:25:58;;;;;;;5.43;4.93;;;;;;;3.93;100.00;62405.97;5037303;28;20194;-80
2022/04/05 01:28:25;;;;;;;5.72;4.68;;;;;;;3.91;100.00;62398.88;5044944;28;20224;-80
2022/04/05 01:30:52;;;;;;;8.80;5.78;;;;;;;3.69;100.00;62378.75;5037913;28;20195;-79
2022/04/05 01:33:20;;;;;;;5.35;4.78;;;;;;;3.69;100.00;62381.28;5055400;28;20277;-80
2022/04/05 01:35:47;;;;;;;6.22;5.63;;;;;;;3.74;100.00;62381.38;5055191;28;20198;-80
2022/04/05 01:38:15;;;;;;;8.45;4.78;;;;;;;3.71;100.00;62378.28;5053104;28;20244;-80
2022/04/05 01:40:41;;;;;;;8.57;5.95;;;;;;;3.81;100.00;62393.09;5052850;28;20394;-80
2022/04/05 01:43:10;;;;;;;6.07;5.50;;;;;;;3.78;100.00;62387.50;5055939;28;20218;-80
2022/04/05 01:45:37;;;;;;;5.50;4.53;;;;;;;3.79;100.00;62388.53;5053529;28;20461;-80
2022/04/05 01:48:04;;;;;;;6.53;5.15;;;;;;;3.84;100.00;62393.66;5053100;28;20220;-80
2022/04/05 01:50:32;;;;;;;5.00;4.55;;;;;;;3.85;100.00;62397.22;5053022;28;20201;-81
2022/04/05 01:53:00;;;;;;;6.20;4.28;;;;;;;3.81;100.00;62388.59;5054288;28;20237;-81
2022/04/05 01:55:27;;;;;;;6.75;4.32;;;;;;;3.81;100.00;62391.09;5043449;28;20203;-80
2022/04/05 01:57:54;;;;;;;8.88;4.55;;;;;;;3.82;100.00;62387.09;5054031;28;20236;-80
2022/04/05 02:00:22;;;;;;;5.35;4.93;;;;;;;3.80;100.00;62387.53;5054640;28;20225;-80
2022/04/05 02:02:49;;;;;;;5.65;4.47;;;;;;;3.87;100.00;62392.22;5055133;28;20288;-80
2022/04/05 02:05:16;;;;;;;4.50;4.10;;;;;;;3.87;100.00;62397.25;5054860;28;20225;-80
2022/04/05 02:07:43;;;;;;;4.53;4.13;;;;;;;3.86;100.00;62398.75;5053494;28;20218;-81
2022/04/05 02:10:10;;;;;;;4.70;4.40;;;;;;;3.80;100.00;62389.53;5055283;28;20403;-80
2022/04/05 02:12:37;;;;;;;8.25;5.18;;;;;;;3.80;100.00;62387.03;5053872;28;20230;-81
2022/04/05 02:15:04;;;;;;;7.10;5.35;;;;;;;3.78;100.00;62388.00;5054712;28;20225;-82
2022/04/05 02:17:33;;;;;;;5.15;4.65;;;;;;;3.63;100.00;62372.06;5054598;28;20264;-80
2022/04/05 02:20:00;;;;;;;4.00;3.70;;;;;;;3.61;100.00;62370.03;5050214;28;20276;-81
2022/04/05 02:22:27;;;;;;;5.72;4.07;;;;;;;3.60;100.00;62369.50;5035772;28;20496;-80
2022/04/05 02:24:54;;;;;;;5.30;4.90;;;;;;;3.49;100.00;62356.19;5035157;28;20208;-80
2022/04/05 02:27:21;;;;;;;4.60;4.13;;;;;;;3.39;100.00;62345.38;5055695;28;20217;-81
2022/04/05 02:29:48;;;;;;;6.07;4.97;;;;;;;3.55;100.00;62364.84;5052004;28;20257;-81
2022/04/05 02:32:15;;;;;;;5.15;4.20;;;;;;;3.49;100.00;62361.22;5055391;28;20230;-81
2022/04/05 02:34:43;;;;;;;6.97;4.93;;;;;;;3.40;100.00;62349.44;5053749;28;20193;-81
2022/04/05 02:37:10;;;;;;;5.25;4.75;;;;;;;3.41;100.00;62350.47;5055296;28;20210;-80
2022/04/05 02:39:37;;;;;;;5.35;4.90;;;;;;;3.51;100.00;62360.75;5048083;28;20226;-80
2022/04/05 02:42:04;;;;;;;6.88;5.10;;;;;;;3.50;100.00;62354.69;5055818;28;20253;-80
2022/04/05 02:44:33;;;;;;;4.60;4.20;;;;;;;3.46;100.00;62357.63;5054556;28;20202;-80
2022/04/05 02:47:00;;;;;;;4.45;4.10;;;;;;;3.46;100.00;62355.09;5055262;28;20262;-80
2022/04/05 02:49:27;;;;;;;5.00;4.35;;;;;;;3.33;100.00;62341.75;5055333;28;20202;-79
2022/04/05 02:51:55;;;;;;;3.92;3.63;;;;;;;3.35;100.00;62349.34;5055367;28;20244;-80
2022/04/05 02:54:22;;;;;;;4.72;4.32;;;;;;;3.31;100.00;62340.19;5053876;28;20218;-81
2022/04/05 02:56:49;;;;;;;4.40;4.10;;;;;;;3.35;100.00;62344.31;5055639;28;20205;-82
2022/04/05 02:59:16;;;;;;;4.68;4.22;;;;;;;3.37;100.00;62346.34;5056867;28;20229;-80
2022/04/05 03:01:42;;;;;;;6.32;4.75;;;;;;;3.40;100.00;62353.94;5053903;28;20202;-80
2022/04/05 03:04:12;;;;;;;5.22;4.72;;;;;;;3.34;100.00;62343.28;5057518;28;20205;-80
2022/04/05 03:06:39;;;;;;;5.85;5.10;;;;;;;3.32;100.00;62340.69;5056227;28;20265;-80
2022/04/05 03:09:07;;;;;;;5.82;5.20;;;;;;;3.30;100.00;62339.16;5056127;28;20224;-80
2022/04/05 03:11:33;;;;;;;4.65;4.07;;;;;;;3.29;100.00;62340.13;5042250;28;20221;-80
2022/04/05 03:14:00;;;;;;;3.60;3.35;;;;;;;3.28;100.00;62339.63;5035928;28;20206;-81
2022/04/05 03:16:27;;;;;;;4.38;3.50;;;;;;;3.32;100.00;62343.75;5052454;28;20208;-81
2022/04/05 03:18:54;;;;;;;3.50;3.22;;;;;;;3.37;100.00;62346.34;5055581;28;20244;-80
2022/04/05 03:21:20;;;;;;;3.70;2.92;;;;;;;3.33;100.00;62342.25;5055536;28;20274;-81
2022/04/05 03:23:47;;;;;;;3.08;2.88;;;;;;;3.29;100.00;62333.09;5053980;28;20245;-80
2022/04/05 03:26:16;;;;;;;3.13;2.92;;;;;;;3.33;100.00;62341.75;5045134;28;20186;-79
2022/04/05 03:28:43;;;;;;;79.00;45.03;;;;;;;3.35;100.00;62341.78;5055131;28;20804;-81
2022/04/05 03:31:10;;;;;;;3.25;3.00;;;;;;;3.49;100.00;62358.69;5044100;28;20225;-82
2022/04/05 03:33:37;;;;;;;2.70;2.60;;;;;;;3.52;100.00;62361.25;5036773;28;20226;-80
2022/04/05 03:36:05;;;;;;;2.83;2.63;;;;;;;3.38;100.00;62344.38;5043994;28;20182;-81
2022/04/05 03:38:32;;;;;;;2.97;2.78;;;;;;;3.49;100.00;62361.22;5056551;28;20237;-81
2022/04/05 03:40:59;;;;;;;2.97;2.78;;;;;;;3.49;100.00;62355.66;5057261;28;20198;-80
2022/04/05 03:43:27;;;;;;;24.42;14.98;;;;;;;3.48;100.00;62355.16;5045905;28;20523;-81
2022/04/05 03:45:54;;;;;;;2.42;2.33;;;;;;;3.41;100.00;62347.97;5043366;28;20232;-81
2022/04/05 03:48:21;;;;;;;2.97;2.78;;;;;;;3.37;100.00;62343.84;5056395;28;20221;-81
2022/04/05 03:50:47;;;;;;;2.78;2.35;;;;;;;3.40;100.00;62349.44;5053084;28;20206;-81
2022/04/05 03:53:14;;;;;;;3.05;2.85;;;;;;;3.47;100.00;62351.59;5041090;28;20457;-78
2022/04/05 03:55:42;;;;;;;2.88;2.65;;;;;;;3.51;100.00;62360.25;5044215;28;20202;-78
2022/04/05 03:58:12;;;;;;;12.80;4.70;;;;;;;3.33;100.00;62339.22;5047473;28;20245;-78
2022/04/05 04:00:40;;;;;;;5.78;4.63;;;;;;;3.22;100.00;62332.94;5045451;28;20232;-80
2022/04/05 04:03:07;;;;;;;7.63;5.93;;;;;;;3.22;100.00;62332.94;5051220;28;20217;-79
2022/04/05 04:05:34;;;;;;;8.68;5.15;;;;;;;3.28;100.00;62337.09;5049659;28;20202;-78
2022/04/05 04:08:01;;;;;;;10.70;5.68;;;;;;;3.33;100.00;62339.22;5047201;28;20522;-78
2022/04/05 04:10:28;;;;;;;55.40;32.13;;;;;;;3.29;100.00;62337.63;5048619;28;20210;-78
2022/04/05 04:12:55;;;;;;;13.05;8.85;;;;;;;3.30;100.00;62336.13;5059485;28;20406;-78
2022/04/05 04:15:22;;;;;;;5.80;5.03;;;;;;;3.27;100.00;62333.03;5052394;28;20205;-79
2022/04/05 04:17:50;;;;;;;7.35;6.65;;;;;;;3.31;100.00;62340.19;5050673;28;20218;-78
2022/04/05 04:20:17;;;;;;;4.60;4.28;;;;;;;3.29;100.00;62338.16;5047648;28;20230;-79
2022/04/05 04:22:43;;;;;;;4.80;4.35;;;;;;;3.24;100.00;62333.00;5044500;28;20549;-77
2022/04/05 04:25:11;;;;;;;3.97;3.70;;;;;;;3.27;100.00;62335.56;5048273;28;20221;-78
2022/04/05 04:27:38;;;;;;;4.65;4.25;;;;;;;3.25;100.00;62331.50;5049258;28;20289;-81
2022/04/05 04:30:06;;;;;;;4.50;4.13;;;;;;;3.27;100.00;62335.56;5046493;28;20258;-80
2022/04/05 04:32:33;;;;;;;5.82;4.18;;;;;;;3.21;100.00;62324.38;5055898;28;20228;-80
2022/04/05 04:35:01;;;;;;;4.20;3.80;;;;;;;3.31;100.00;62337.16;5054605;28;20206;-80
2022/04/05 04:37:28;;;;;;;5.05;4.20;;;;;;;3.38;100.00;62344.38;5055424;28;20229;-81
2022/04/05 04:39:58;;;;;;;4.75;3.72;;;;;;;3.27;100.00;62336.09;5056967;28;20230;-81
2022/04/05 04:42:25;;;;;;;7.07;4.72;;;;;;;3.32;100.00;62343.75;5051944;28;20214;-81
2022/04/05 04:44:52;;;;;;;6.82;5.53;;;;;;;3.47;100.00;62353.59;5057196;28;20209;-80
2022/04/05 04:47:18;;;;;;;9.95;7.53;;;;;;;3.58;100.00;62362.41;5054985;28;20222;-81
2022/04/05 04:49:45;;;;;;;11.70;7.50;;;;;;;3.65;100.00;62377.16;5054134;28;20208;-82
2022/04/05 04:52:13;;;;;;;6.82;6.13;;;;;;;3.52;100.00;62359.25;5055288;28;20226;-81
2022/04/05 04:54:40;;;;;;;11.93;6.72;;;;;;;3.63;100.00;62372.56;5053693;28;20202;-80
2022/04/05 04:57:07;;;;;;;10.20;6.20;;;;;;;3.71;100.00;62380.31;5055416;28;20264;-79
2022/04/05 04:59:34;;;;;;;9.45;7.20;;;;;;;3.75;100.00;62384.41;5051870;28;20230;-80
2022/04/05 05:02:01;;;;;;;22.30;7.28;;;;;;;3.66;100.00;62372.63;5053419;28;20222;-81
2022/04/05 05:04:28;;;;;;;9.52;7.75;;;;;;;3.59;100.00;62365.94;5055516;28;20405;-79
2022/04/05 05:06:54;;;;;;;13.32;7.32;;;;;;;3.45;100.00;62351.56;5053766;28;20272;-80
2022/04/05 05:09:22;;;;;;;15.30;8.65;;;;;;;3.21;100.00;62329.91;5048293;28;20522;-80
2022/04/05 05:11:49;;;;;;;22.52;9.75;;;;;;;3.28;100.00;62336.59;5050754;28;20226;-78
2022/04/05 05:14:16;;;;;;;26.95;8.90;;;;;;;3.40;100.00;62351.97;5050933;28;20198;-79
2022/04/05 05:16:43;;;;;;;18.55;10.05;;;;;;;3.57;100.00;62366.41;5053504;28;20194;-80
2022/04/05 05:19:09;;;;;;;18.08;9.43;;;;;;;3.64;100.00;62371.09;5052631;28;20285;-80
2022/04/05 05:21:36;;;;;;;20.67;9.25;;;;;;;3.69;100.00;62378.75;5059200;28;20202;-79
2022/04/05 05:24:04;;;;;;;12.57;9.13;;;;;;;3.68;100.00;62375.19;5055503;28;20218;-79
2022/04/05 05:26:32;;;;;;;20.67;9.48;;;;;;;3.57;100.00;62363.38;5053454;28;20212;-80
2022/04/05 05:28:58;;;;;;;20.30;9.82;;;;;;;3.71;100.00;62380.81;5043828;28;20194;-81
2022/04/05 05:31:25;;;;;;;19.98;9.40;;;;;;;3.74;100.00;62383.91;5053029;28;20202;-79
2022/04/05 05:33:52;;;;;;;16.60;9.80;;;;;;;3.80;100.00;62389.53;5052621;28;20229;-80
2022/04/05 05:36:19;;;;;;;22.02;10.10;;;;;;;3.81;100.00;62385.53;5053030;28;20206;-79
2022/04/05 05:38:45;;;;;;;18.15;10.00;;;;;;;3.87;100.00;62396.75;5049237;28;20224;-79
2022/04/05 05:41:12;;;;;;;18.25;10.48;;;;;;;3.75;100.00;62381.88;5050122;28;20225;-81
2022/04/05 05:43:45;;;;;;;17.48;10.32;;;;;;;3.68;100.00;62377.72;5049702;28;20216;-80
2022/04/05 05:46:12;;;;;;;17.95;9.88;;;;;;;3.92;100.00;62406.94;5049300;28;20201;-79
2022/04/05 05:48:39;;;;;;;16.95;10.52;;;;;;;4.09;100.00;62417.38;5052269;28;20222;-79
2022/04/05 05:51:06;;;;;;;15.55;9.55;;;;;;;4.24;100.00;62437.84;5051137;28;20202;-79
2022/04/05 05:53:33;;;;;;;15.77;9.85;;;;;;;4.50;100.00;62459.06;5052627;28;20218;-79
2022/04/05 05:56:00;;;;;;;11.18;8.25;;;;;;;4.51;100.00;62463.13;5047675;28;20194;-79
2022/04/05 05:58:27;;;;;;;16.50;10.10;;;;;;;4.34;100.00;62448.16;5047642;28;20222;-80
2022/04/05 06:00:56;;;;;;;22.63;12.40;;;;;;;4.28;100.00;62436.41;5049668;28;20273;-80
2022/04/05 06:03:22;;;;;;;16.45;10.73;;;;;;;4.28;100.00;62438.94;5044146;28;20242;-78
2022/04/05 06:05:49;;;;;;;21.75;12.38;;;;;;;4.37;100.00;62448.69;5044547;28;20201;-77
2022/04/05 06:08:17;;;;;;;20.35;10.25;;;;;;;4.67;100.00;62477.06;5045414;28;20545;-76
2022/04/05 06:10:44;;;;;;;17.80;11.23;;;;;;;4.90;100.00;62505.25;5041869;28;20261;-78
2022/04/05 06:13:12;;;;;;;21.17;10.70;;;;;;;4.84;100.00;62493.53;5037145;28;20234;-76
2022/04/05 06:15:39;;;;;;;17.45;10.40;;;;;;;4.99;100.00;62508.97;5044532;28;20198;-78
2022/04/05 06:18:07;;;;;;;17.13;11.35;;;;;;;5.05;100.00;62518.19;5043998;28;20217;-78
2022/04/05 06:20:34;;;;;;;20.08;12.23;;;;;;;5.20;100.00;62535.63;5040646;28;20233;-78
2022/04/05 06:23:02;;;;;;;17.17;10.05;;;;;;;5.43;100.00;62559.34;5045925;28;20251;-79
2022/04/05 06:25:32;;;;;;;17.95;9.65;;;;;;;5.65;100.00;62574.94;5068547;28;20193;-79
2022/04/05 06:28:02;;;;;;;17.92;9.40;;;;;;;5.79;100.00;62596.94;5067932;28;20240;-80
2022/04/05 06:30:29;;;;;;;12.23;9.45;;;;;;;6.05;100.00;62618.19;5045135;28;20236;-80
2022/04/05 06:33:07;;;;;;;9.02;6.93;;;;;;;6.19;98.22;62632.09;5049828;28;20237;-79
2022/04/05 06:35:35;;;;;;;12.50;7.65;;;;;;;6.29;96.57;62645.47;5049715;28;20197;-79
2022/04/05 06:38:01;;;;;;;14.43;7.75;;;;;;;6.30;96.08;62648.50;5049233;28;20229;-80
2022/04/05 06:40:28;;;;;;;8.52;7.10;;;;;;;6.30;96.39;62649.00;5046058;28;20237;-79
2022/04/05 06:42:55;;;;;;;18.25;8.68;;;;;;;6.48;96.06;62659.47;5047810;28;20217;-79
2022/04/05 06:45:24;;;;;;;14.75;8.38;;;;;;;6.53;96.35;62669.69;5046945;28;20542;-79
2022/04/05 06:47:51;;;;;;;10.10;8.50;;;;;;;6.70;96.16;62687.22;5029906;28;20223;-79
2022/04/05 06:50:24;;;;;;;16.58;8.43;;;;;;;6.76;95.92;62688.34;5035223;28;20205;-79
2022/04/05 06:52:51;;;;;;;19.17;8.27;;;;;;;6.84;96.41;62699.13;5048862;28;20273;-79
2022/04/05 06:55:18;;;;;;;8.75;7.85;;;;;;;6.89;95.38;62704.81;5047623;28;20292;-79
2022/04/05 06:57:45;;;;;;;17.85;8.73;;;;;;;7.07;95.09;62727.41;5051848;28;20252;-79
2022/04/05 07:00:13;;;;;;;10.53;8.47;;;;;;;7.06;93.09;62726.38;5048208;28;20768;-78
2022/04/05 07:02:40;;;;;;;12.57;8.35;;;;;;;7.29;89.89;62745.03;5036729;28;20221;-78
2022/04/05 07:05:09;;;;;;;11.68;7.93;;;;;;;7.16;90.40;62732.16;5036275;28;20206;-79
2022/04/05 07:07:37;;;;;;;9.77;7.40;;;;;;;7.30;90.51;62749.13;5042631;28;20241;-79
2022/04/05 07:10:05;;;;;;;11.10;7.18;;;;;;;7.23;90.83;62741.88;5042250;28;20490;-78
2022/04/05 07:12:32;;;;;;;9.48;6.78;;;;;;;7.47;90.08;62769.19;5041597;28;20246;-79
2022/04/05 07:14:59;;;;;;;8.48;5.28;;;;;;;7.43;88.38;62760.00;5044315;28;20370;-78
2022/04/05 07:17:26;;;;;;;6.63;5.63;;;;;;;7.44;86.91;62763.56;5041916;28;20214;-77
2022/04/05 07:19:53;;;;;;;7.30;6.43;;;;;;;7.61;87.70;62783.63;5047544;28;20430;-78
2022/04/05 07:22:20;;;;;;;6.22;5.68;;;;;;;7.49;86.95;62766.19;5049406;28;20229;-78
2022/04/05 07:24:49;;;;;;;6.55;5.88;;;;;;;7.63;84.32;62780.63;5040811;28;20428;-78
2022/04/05 07:27:15;;;;;;;6.35;5.65;;;;;;;7.54;83.18;62773.38;5048558;28;20252;-79
2022/04/05 07:29:42;;;;;;;6.07;5.05;;;;;;;7.58;80.78;62780.56;5048004;28;20691;-78
2022/04/05 07:32:09;;;;;;;5.95;5.25;;;;;;;7.41;84.21;62763.00;5048603;28;20230;-78
2022/04/05 07:34:40;;;;;;;6.63;4.72;;;;;;;7.53;82.64;62772.84;5046548;28;20206;-78
2022/04/05 07:37:09;;;;;;;6.15;4.78;;;;;;;7.84;80.62;62804.34;5044935;28;20291;-78
2022/04/05 07:39:36;;;;;;;5.43;4.63;;;;;;;8.02;80.11;62823.44;5048138;28;20197;-77
2022/04/05 07:42:05;;;;;;;4.93;4.47;;;;;;;8.04;78.91;62827.53;5049230;28;20237;-77
2022/04/05 07:44:33;;;;;;;5.80;5.38;;;;;;;7.97;78.53;62820.81;5048613;28;20214;-79
2022/04/05 07:47:00;;;;;;;5.25;4.75;;;;;;;7.68;78.75;62787.84;5051731;28;20296;-79
2022/04/05 07:49:26;;;;;;;7.75;5.22;;;;;;;7.60;78.40;62777.03;5054522;28;20204;-79
2022/04/05 07:51:53;;;;;;;9.85;4.63;;;;;;;8.04;79.67;62822.47;5043870;28;20220;-78
2022/04/05 07:54:20;;;;;;;7.57;5.75;;;;;;;8.25;76.74;62846.69;5050061;28;20467;-79
2022/04/05 07:56:47;;;;;;;8.95;5.28;;;;;;;8.49;75.84;62871.47;5046905;28;20244;-77
2022/04/05 07:59:16;;;;;;;5.78;4.50;;;;;;;8.47;75.36;62871.44;5051927;28;20202;-79
2022/04/05 08:01:43;;;;;;;5.40;4.90;;;;;;;8.80;75.78;62900.47;5049074;28;20233;-78
2022/04/05 08:04:09;;;;;;;5.00;4.45;;;;;;;8.95;71.69;62916.47;5049059;28;20202;-79
2022/04/05 08:06:36;;;;;;;7.60;4.85;;;;;;;8.99;70.86;62925.19;5053593;28;20213;-79
2022/04/05 08:09:03;;;;;;;7.43;4.93;;;;;;;9.27;70.70;62949.03;5041447;28;20457;-78
2022/04/05 08:11:30;;;;;;;6.72;5.05;;;;;;;9.03;69.23;62929.31;5050725;28;20210;-78
2022/04/05 08:13:57;;;;;;;5.20;4.70;;;;;;;9.10;68.64;62937.06;5045786;28;20244;-78
2022/04/05 08:16:25;;;;;;;7.20;5.32;;;;;;;9.34;68.69;62958.81;5047771;28;20210;-78
2022/04/05 08:18:52;;;;;;;8.50;5.65;;;;;;;9.47;68.14;62974.81;5044920;28;20195;-78
2022/04/05 08:21:19;;;;;;;6.70;5.35;;;;;;;9.29;69.25;62956.69;5031143;28;20352;-78
2022/04/05 08:23:48;;;;;;;11.23;5.28;;;;;;;9.07;70.20;62933.44;5039422;28;20253;-79
2022/04/05 08:26:15;;;;;;;7.00;5.22;;;;;;;9.32;71.59;62957.25;5046199;28;20211;-78
2022/04/05 08:28:42;;;;;;;10.57;5.70;;;;;;;9.28;69.69;62958.19;5046545;28;20222;-78
2022/04/05 08:31:09;;;;;;;8.40;5.82;;;;;;;9.25;68.49;62949.50;5049318;28;20206;-79
2022/04/05 08:33:37;;;;;;;8.40;5.50;;;;;;;9.17;66.57;62946.31;5049429;28;20222;-78
2022/04/05 08:36:04;;;;;;;9.52;5.35;;;;;;;9.14;66.77;62941.19;5050414;28;20228;-79
2022/04/05 08:38:31;;;;;;;13.00;6.38;;;;;;;9.10;67.60;62939.59;5048616;28;20222;-79
2022/04/05 08:41:03;;;;;;;7.20;5.75;;;;;;;9.35;66.37;62959.84;5048982;28;20260;-78
2022/04/05 08:43:29;;;;;;;7.85;5.35;;;;;;;9.55;64.76;62985.09;5048782;28;20232;-80
2022/04/05 08:45:59;;;;;;;7.63;5.47;;;;;;;9.73;62.34;63004.22;5052902;28;20205;-79
2022/04/05 08:48:28;;;;;;;9.25;5.18;;;;;;;9.92;61.87;63021.31;5046969;28;20261;-78
2022/04/05 08:50:57;;;;;;;6.07;4.60;;;;;;;10.19;61.66;63046.22;5044746;28;20482;-78
2022/04/05 08:53:25;;;;;;;6.20;5.13;;;;;;;10.34;59.01;63064.28;5031365;28;20218;-79
2022/04/05 08:55:52;;;;;;;6.05;4.72;;;;;;;10.27;58.67;63057.56;5041005;28;20209;-80
2022/04/05 08:58:19;;;;;;;5.18;4.63;;;;;;;10.21;57.75;63048.28;5051708;28;20401;-80
2022/04/05 09:00:46;;;;;;;4.93;3.72;;;;;;;10.23;55.24;63052.91;5051330;28;20268;-78
2022/04/05 09:03:13;;;;;;;6.53;4.65;;;;;;;10.53;55.59;63078.84;5028752;28;20463;-78
2022/04/05 09:05:43;;;;;;;5.85;5.10;;;;;;;10.63;57.59;63094.28;5038341;28;20195;-79
2022/04/05 09:08:18;;;;;;;5.82;4.63;;;;;;;10.78;55.50;63101.66;5054909;28;20222;-79
2022/04/05 09:10:47;;;;;;;4.55;3.60;;;;;;;11.09;54.21;63138.84;5044620;28;20222;-79
2022/04/05 09:13:18;;;;;;;3.83;3.47;;;;;;;11.27;51.16;63160.03;5054422;28;20684;-79
2022/04/05 09:15:48;;;;;;;4.57;4.13;;;;;;;11.11;51.46;63138.88;5048925;28;20205;-78
2022/04/05 09:18:26;;;;;;;9.75;6.18;;;;;;;10.98;54.02;63125.44;5046450;28;20276;-78
2022/04/05 09:20:54;;;;;;;9.18;6.00;;;;;;;10.91;51.57;63120.22;5044366;28;20217;-79
2022/04/05 09:23:27;;;;;;;10.45;5.47;;;;;;;10.86;53.32;63115.03;5051879;28;20439;-78
2022/04/05 09:25:58;;;;;;;6.53;5.10;;;;;;;11.22;51.32;63149.75;5060846;28;20198;-79
2022/04/05 09:28:33;;;;;;;8.02;4.63;;;;;;;11.52;50.73;63183.41;5050301;28;20237;-79
2022/04/05 09:31:02;;;;;;;9.48;4.28;;;;;;;11.73;50.44;63204.66;5054423;28;20428;-79
2022/04/05 09:33:30;;;;;;;5.80;4.43;;;;;;;11.69;50.23;63203.56;5054209;28;20226;-79
2022/04/05 09:36:11;;;;;;;4.80;4.15;;;;;;;11.37;50.77;63167.88;5054058;28;20261;-79
2022/04/05 09:38:41;;;;;;;4.65;4.03;;;;;;;11.69;50.15;63200.50;5050407;28;20260;-80
2022/04/05 09:41:19;;;;;;;7.28;4.35;;;;;;;11.75;49.17;63206.72;5044839;28;20457;-78
2022/04/05 09:43:57;;;;;;;4.60;4.18;;;;;;;11.72;46.78;63206.16;5054832;28;20233;-77
2022/04/05 09:46:25;;;;;;;4.30;3.90;;;;;;;11.45;48.64;63176.66;5055017;28;20248;-80
2022/04/05 09:49:10;;;;;;;6.32;4.40;;;;;;;11.58;48.29;63192.16;5049812;28;20272;-78
2022/04/05 09:51:45;;;;;;;5.38;4.18;;;;;;;11.73;49.21;63207.19;5028717;28;20230;-79
2022/04/05 09:54:27;;;;;;;4.60;4.20;;;;;;;11.97;48.73;63230.03;5047337;28;20236;-78
2022/04/05 09:57:00;;;;;;;4.57;4.18;;;;;;;11.98;48.64;63228.00;5048723;28;20222;-79
2022/04/05 09:59:37;;;;;;;5.57;4.35;;;;;;;12.04;49.78;63236.78;5049324;28;20194;-79
2022/04/05 10:02:10;;;;;;;4.40;3.97;;;;;;;12.30;49.15;63268.81;5050652;28;20233;-79
2022/04/05 10:05:01;;;;;;;5.13;4.60;;;;;;;12.48;50.58;63279.81;5049619;28;20208;-80
2022/04/05 10:07:28;;;;;;;4.15;3.83;;;;;;;12.47;47.45;63283.91;5031080;28;20249;-80
2022/04/05 10:09:58;;;;;;;5.82;4.07;;;;;;;11.99;47.56;63234.16;5050117;28;20205;-79
2022/04/05 10:12:26;;;;;;;5.05;4.65;;;;;;;11.89;47.71;63223.78;5050917;28;20246;-79
2022/04/05 10:14:53;;;;;;;4.95;4.38;;;;;;;12.21;48.96;63252.34;5051878;28;20224;-79
2022/04/05 10:17:21;;;;;;;5.25;4.22;;;;;;;12.46;47.78;63283.38;5052487;28;20214;-79
2022/04/05 10:19:50;;;;;;;4.97;4.55;;;;;;;12.59;46.21;63298.88;5050022;28;20275;-79
2022/04/05 10:22:18;;;;;;;7.90;4.18;;;;;;;12.37;46.86;63273.53;5036389;28;20252;-80
2022/04/05 10:24:46;;;;;;;4.95;3.75;;;;;;;12.21;47.50;63256.94;5056209;28;20208;-80
2022/04/05 10:27:16;;;;;;;5.05;4.65;;;;;;;12.28;47.61;63262.16;5053898;28;20226;-79
2022/04/05 10:29:45;;;;;;;3.85;3.50;;;;;;;12.26;47.34;63265.19;5054270;28;20289;-79
2022/04/05 10:32:19;;;;;;;4.57;4.13;;;;;;;12.35;47.20;63271.47;5054445;28;20502;-78
2022/04/05 10:34:50;;;;;;;5.75;4.70;;;;;;;12.37;48.22;63265.88;5055447;28;20198;-79
2022/04/05 10:37:18;;;;;;;6.90;4.68;;;;;;;12.73;50.46;63308.81;5052409;28;20270;-79
2022/04/05 10:40:16;;;;;;;4.22;3.92;;;;;;;12.54;47.90;63288.59;5051968;28;20221;-79
2022/04/05 10:42:46;;;;;;;7.70;4.45;;;;;;;12.93;47.20;63334.16;5049766;28;20276;-79
2022/04/05 10:45:14;;;;;;;4.45;4.05;;;;;;;12.43;46.18;63280.25;5052415;28;20194;-80
2022/04/05 10:47:58;;;;;;;4.25;3.85;;;;;;;12.06;47.23;63239.34;5052457;28;20340;-80
2022/04/05 10:50:25;;;;;;;4.25;3.85;;;;;;;12.13;47.48;63254.25;5040979;28;20397;-79
2022/04/05 10:53:17;;;;;;;7.32;4.10;;;;;;;12.06;47.72;63238.84;5037907;28;20225;-80
2022/04/05 10:56:17;;;;;;;7.32;4.32;;;;;;;12.11;48.88;63249.13;5045574;28;20376;-79
2022/04/05 10:59:18;;;;;;;4.28;3.97;;;;;;;12.19;48.44;63249.75;5048574;28;20268;-80
2022/04/05 11:01:45;;;;;;;4.78;4.07;;;;;;;12.52;46.40;63287.03;5044716;28;20249;-79
2022/04/05 11:04:33;;;;;;;4.05;3.75;;;;;;;12.48;47.31;63282.38;5046327;28;20194;-79
2022/04/05 11:07:13;;;;;;;6.80;5.03;;;;;;;12.45;45.81;63284.38;5048830;28;20237;-79
2022/04/05 11:09:48;;;;;;;5.13;4.70;;;;;;;12.59;44.71;63291.75;5029770;28;20202;-80
2022/04/05 11:12:19;;;;;;;5.03;4.63;;;;;;;12.62;45.00;63299.97;5049608;28;20236;-79
2022/04/05 11:14:51;;;;;;;5.97;4.65;;;;;;;12.70;45.33;63305.19;5048033;28;20237;-78
2022/04/05 11:17:19;;;;;;;7.18;4.30;;;;;;;13.08;45.66;63344.09;5050267;28;20225;-80
2022/04/05 11:19:48;;;;;;;8.70;4.45;;;;;;;12.82;44.73;63318.16;5045131;28;20198;-80
2022/04/05 11:22:29;;;;;;;5.85;4.28;;;;;;;12.68;44.32;63303.63;5037667;28;20238;-80
2022/04/05 11:25:00;;;;;;;5.85;4.43;;;;;;;12.64;44.41;63298.97;5048631;28;20217;-80
2022/04/05 11:27:28;;;;;;;10.60;4.35;;;;;;;12.74;45.04;63309.31;5049095;28;20230;-79
2022/04/05 11:30:37;;;;;;;4.43;3.75;;;;;;;13.02;45.34;63343.50;5047063;28;20198;-78
2022/04/05 11:33:19;;;;;;;8.02;4.32;;;;;;;13.38;45.54;63377.78;5039466;28;20226;-78
2022/04/05 11:35:47;;;;;;;5.30;4.30;;;;;;;13.28;42.19;63367.41;5046849;28;20204;-78
2022/04/05 11:38:27;;;;;;;4.85;4.45;;;;;;;13.45;45.20;63383.00;5043973;28;20411;-78
2022/04/05 11:40:57;;;;;;;5.00;4.50;;;;;;;13.42;43.81;63376.81;5046486;28;20418;-77